Regina International Airport
CYQR : rendu visible

Aérodrome :











RETROUVEZ-NOUS SUR...

 
LOGIN :

S'inscrire | Disclaimer

   EN    FR    IT 

 









Légende :    VFR   VFR Marginal   IFR   IFR Intensif   IFR Très Intensif
Visi : 
Plafond : 
>= 8 km
>= 3000ft
5 à 8 km
1000 à 3000 ft
1500m à 5 km
500 à 1000 ft
800 à 1500m
200 à 500 ft
< 800m
< 200 ft
Symboles :   Orages  Brouillard  Fortes neiges  Fortes précipitations  Vent > 20 kt






- Altitude de l'aérodrome : 1894 ft
- Code IATA : YQR


CYQR - Regina International

DERNIER METAR :
  • 190500Z 29007KT 15SM SKC M26/M29 A3053 RMK SLP409

METARs EXPIRÉS :
  • 190400Z 29006KT 15SM SKC M25/M27 A3051 RMK SLP404
  • 190300Z 30005KT 15SM SKC M25/M28 A3050 RMK SLP403

TAF TAF CYQR
Valide du 19 à 00h jusqu'au 20 à 00h UTC


182338Z 1900/1924 33008KT P6SM SKC
BECMG 1908/1910 VRB03KT
FM191500 15008KT P6SM SKC
BECMG 1919/1921 17012KT RMK NXT FCST BY 190600Z



MET'MAP, la Météo Aéronautique d'un coup d'oeil ! - Copyright ORBIFLY Décembre 2007 - Disclaimer

ORBIFLY MET'MAP TEAM :

Programmation & Développement : Alexandra Zaïnal
Sur une idée originale de : Baudouin d'Aumeries
Assistance à la programmation : Marc-Olivier Méhu
Soutien technique & logistique : Manuel Goepfert

Contact : metmap@orbifly.com




SOURCES & CREDITS :

   NOAA       Earth
Advisory